createdAt,value
2023-05-16T00:02:08.899Z,11.20
2023-05-16T00:04:38.929Z,11.20
2023-05-16T00:07:07.195Z,11.20
2023-05-16T00:09:35.338Z,11.20
2023-05-16T00:12:03.524Z,11.20
2023-05-16T00:14:31.718Z,11.20
2023-05-16T00:17:01.140Z,11.10
2023-05-16T00:19:30.034Z,11.10
2023-05-16T00:21:59.462Z,11.10
2023-05-16T00:24:27.856Z,11.00
2023-05-16T00:26:56.003Z,10.90
2023-05-16T00:29:24.428Z,10.90
2023-05-16T00:31:52.775Z,10.90
2023-05-16T00:34:22.798Z,10.80
2023-05-16T00:36:52.962Z,10.80
2023-05-16T00:39:22.464Z,10.70
2023-05-16T00:41:50.889Z,10.70
2023-05-16T00:44:19.309Z,10.70
2023-05-16T00:46:47.708Z,10.60
2023-05-16T00:49:16.141Z,10.60
2023-05-16T00:51:44.478Z,10.50
2023-05-16T00:54:13.427Z,10.50
2023-05-16T00:56:43.205Z,10.40
2023-05-16T00:59:12.150Z,10.40
2023-05-16T01:01:42.393Z,10.40
2023-05-16T01:04:10.950Z,10.30
2023-05-16T01:06:39.228Z,10.30
2023-05-16T01:09:08.167Z,10.20
2023-05-16T01:11:51.971Z,10.20
2023-05-16T01:14:39.629Z,10.20
2023-05-16T01:17:19.115Z,10.10
2023-05-16T01:20:11.253Z,10.10
2023-05-16T01:23:02.775Z,10.10
2023-05-16T01:25:46.793Z,10.10
2023-05-16T01:28:18.385Z,10.10
2023-05-16T01:30:46.836Z,10.00
2023-05-16T01:33:15.033Z,10.00
2023-05-16T01:35:56.680Z,10.00
2023-05-16T01:38:28.441Z,10.00
2023-05-16T01:41:06.792Z,10.00
2023-05-16T01:43:43.617Z,10.00
2023-05-16T01:46:21.600Z,10.00
2023-05-16T01:48:56.831Z,10.00
2023-05-16T01:51:30.769Z,10.00
2023-05-16T01:54:07.519Z,10.00
2023-05-16T01:56:38.852Z,10.00
2023-05-16T01:59:11.241Z,9.90
2023-05-16T02:01:39.520Z,9.90
2023-05-16T02:04:07.820Z,9.90
2023-05-16T02:06:37.097Z,9.90
2023-05-16T02:09:05.257Z,9.90
2023-05-16T02:11:33.413Z,10.00
2023-05-16T02:14:01.490Z,10.00
2023-05-16T02:16:32.082Z,10.00
2023-05-16T02:19:00.256Z,10.00
2023-05-16T02:21:28.460Z,10.00
2023-05-16T02:23:56.520Z,10.00
2023-05-16T02:26:24.615Z,10.10
2023-05-16T02:28:52.749Z,10.00
2023-05-16T02:31:33.017Z,10.00
2023-05-16T02:34:01.906Z,10.00
2023-05-16T02:36:30.818Z,10.00
2023-05-16T02:38:58.930Z,9.90
2023-05-16T02:41:27.033Z,9.90
2023-05-16T02:43:55.190Z,9.90
2023-05-16T02:46:25.812Z,9.80
2023-05-16T02:48:56.016Z,9.80
2023-05-16T02:51:26.955Z,9.80
2023-05-16T02:53:59.763Z,9.80
2023-05-16T02:56:28.542Z,9.80
2023-05-16T02:58:56.954Z,9.80
2023-05-16T03:01:25.507Z,9.80
2023-05-16T03:03:55.249Z,9.90
2023-05-16T03:06:24.556Z,9.90
2023-05-16T03:08:53.241Z,9.90
2023-05-16T03:11:24.037Z,10.00
2023-05-16T03:13:52.193Z,10.00
2023-05-16T03:16:20.503Z,10.00
2023-05-16T03:18:48.714Z,10.10
2023-05-16T03:21:18.245Z,10.10
2023-05-16T03:23:46.486Z,10.10
2023-05-16T03:26:14.688Z,10.20
2023-05-16T03:28:42.788Z,10.20
2023-05-16T03:31:11.050Z,10.20
2023-05-16T03:33:39.417Z,10.20
2023-05-16T03:36:08.564Z,10.20
2023-05-16T03:38:38.504Z,10.20
2023-05-16T03:41:06.765Z,10.10
2023-05-16T03:43:34.874Z,10.10
2023-05-16T03:46:03.216Z,10.20
2023-05-16T03:48:31.460Z,10.20
2023-05-16T03:50:59.556Z,10.20
2023-05-16T03:53:27.733Z,10.20
2023-05-16T03:55:57.202Z,10.30
2023-05-16T03:58:25.501Z,10.30
2023-05-16T04:00:53.614Z,10.40
2023-05-16T04:03:28.138Z,10.40
2023-05-16T04:05:57.216Z,10.40
2023-05-16T04:08:25.703Z,10.50
2023-05-16T04:10:53.823Z,10.60
2023-05-16T04:13:23.430Z,10.60
2023-05-16T04:15:51.690Z,10.60
2023-05-16T04:18:19.985Z,10.70
2023-05-16T04:20:48.562Z,10.70
2023-05-16T04:23:16.660Z,10.80
2023-05-16T04:25:44.875Z,10.80
2023-05-16T04:28:13.478Z,10.90
2023-05-16T04:30:43.050Z,10.90
2023-05-16T04:33:11.853Z,10.90
2023-05-16T04:35:40.253Z,11.00
2023-05-16T04:38:08.556Z,11.00
2023-05-16T04:40:36.677Z,11.10
2023-05-16T04:43:04.822Z,11.10
2023-05-16T04:45:33.854Z,11.20
2023-05-16T04:48:05.119Z,11.20
2023-05-16T04:50:33.424Z,11.30
2023-05-16T04:53:01.726Z,11.40
2023-05-16T04:55:30.160Z,11.40
2023-05-16T04:57:58.646Z,11.50
2023-05-16T05:00:27.104Z,11.60
2023-05-16T05:02:55.596Z,11.60
2023-05-16T05:05:25.465Z,11.70
2023-05-16T05:07:54.138Z,11.80
2023-05-16T05:10:22.443Z,11.90
2023-05-16T05:12:50.734Z,12.00
2023-05-16T05:15:19.124Z,12.00
2023-05-16T05:17:47.412Z,12.10
2023-05-16T05:20:15.882Z,12.20
2023-05-16T05:22:45.368Z,12.20
2023-05-16T05:25:13.964Z,12.30
2023-05-16T05:27:42.355Z,12.30
2023-05-16T05:30:11.619Z,12.40
2023-05-16T05:32:40.037Z,12.50
2023-05-16T05:35:08.882Z,12.60
2023-05-16T05:37:37.079Z,12.70
2023-05-16T05:40:08.790Z,12.80
2023-05-16T05:42:36.881Z,12.90
2023-05-16T05:45:06.408Z,12.90
2023-05-16T05:47:34.767Z,13.00
2023-05-16T05:50:04.680Z,13.10
2023-05-16T05:52:33.158Z,13.30
2023-05-16T05:55:01.291Z,13.40
2023-05-16T05:57:30.919Z,13.50
2023-05-16T05:59:59.134Z,13.50
2023-05-16T06:02:27.958Z,13.70
2023-05-16T06:04:56.234Z,13.70
2023-05-16T06:07:24.352Z,13.80
2023-05-16T06:09:52.486Z,13.90
2023-05-16T06:12:20.630Z,14.00
2023-05-16T06:14:50.128Z,14.10
2023-05-16T06:17:18.366Z,14.20
2023-05-16T06:19:47.008Z,14.30
2023-05-16T06:22:15.159Z,14.40
2023-05-16T06:24:43.230Z,14.50
2023-05-16T06:27:11.701Z,14.50
2023-05-16T06:29:39.774Z,14.60
2023-05-16T06:32:11.740Z,14.70
2023-05-16T06:34:44.447Z,14.80
2023-05-16T06:37:12.530Z,14.90
2023-05-16T06:39:40.639Z,15.00
2023-05-16T06:42:08.825Z,15.00
2023-05-16T06:44:38.992Z,15.10
2023-05-16T06:47:08.786Z,15.20
2023-05-16T06:49:37.040Z,15.30
2023-05-16T06:52:06.103Z,15.50
2023-05-16T06:54:35.115Z,15.60
2023-05-16T06:57:03.950Z,15.80
2023-05-16T06:59:32.596Z,16.00
2023-05-16T07:02:01.006Z,16.20
2023-05-16T07:04:30.692Z,16.40
2023-05-16T07:06:59.003Z,16.60
2023-05-16T07:09:27.143Z,16.60
2023-05-16T07:11:55.420Z,16.70
2023-05-16T07:14:23.569Z,16.80
2023-05-16T07:16:51.769Z,17.00
2023-05-16T07:19:20.126Z,17.10
2023-05-16T07:21:49.879Z,17.20
2023-05-16T07:24:18.024Z,17.20
2023-05-16T07:26:46.307Z,17.20
2023-05-16T07:29:14.527Z,17.30
2023-05-16T07:31:45.647Z,17.30
2023-05-16T07:34:16.137Z,17.30
2023-05-16T07:36:44.377Z,17.30
2023-05-16T07:39:14.599Z,17.30
2023-05-16T07:41:42.738Z,17.30
2023-05-16T07:44:10.996Z,17.30
2023-05-16T07:46:39.604Z,17.30
2023-05-16T07:49:07.998Z,17.30
2023-05-16T07:51:36.572Z,17.40
2023-05-16T07:54:05.004Z,17.40
2023-05-16T07:56:34.917Z,17.50
2023-05-16T07:59:03.300Z,17.60
2023-05-16T08:01:31.603Z,17.80
2023-05-16T08:03:59.947Z,18.00
2023-05-16T08:06:28.126Z,18.10
2023-05-16T08:08:56.385Z,18.20
2023-05-16T08:11:24.603Z,18.20
2023-05-16T08:13:54.257Z,18.20
2023-05-16T08:16:22.411Z,18.30
2023-05-16T08:18:50.899Z,18.40
2023-05-16T08:21:19.255Z,18.30
2023-05-16T08:23:47.463Z,18.40
2023-05-16T08:26:16.351Z,18.50
2023-05-16T08:28:44.559Z,18.60
2023-05-16T08:31:16.554Z,18.60
2023-05-16T08:33:44.894Z,18.70
2023-05-16T08:36:13.109Z,18.90
2023-05-16T08:38:41.284Z,19.00
2023-05-16T08:41:09.584Z,19.30
2023-05-16T08:43:37.802Z,19.50
2023-05-16T08:46:08.298Z,19.60
2023-05-16T08:48:39.666Z,19.70
2023-05-16T08:51:10.806Z,19.90
2023-05-16T08:53:46.431Z,19.90
2023-05-16T08:56:17.272Z,19.90
2023-05-16T08:58:46.487Z,20.10
2023-05-16T09:01:15.219Z,20.30
2023-05-16T09:03:45.658Z,20.50
2023-05-16T09:06:14.260Z,20.50
2023-05-16T09:08:43.130Z,20.60
2023-05-16T09:11:11.578Z,20.60
2023-05-16T09:13:40.767Z,20.60
2023-05-16T09:16:14.611Z,20.70
2023-05-16T09:18:47.981Z,20.70
2023-05-16T09:21:17.125Z,20.60
2023-05-16T09:23:46.512Z,20.60
2023-05-16T09:26:14.882Z,20.50
2023-05-16T09:28:44.433Z,20.50
2023-05-16T09:31:24.933Z,20.50
2023-05-16T09:33:55.195Z,20.50
2023-05-16T09:36:23.513Z,20.60
2023-05-16T09:38:52.719Z,20.60
2023-05-16T09:41:22.985Z,20.70
2023-05-16T09:43:51.532Z,20.80
2023-05-16T09:46:20.400Z,20.90
2023-05-16T09:48:49.366Z,20.80
2023-05-16T09:51:24.064Z,20.80
2023-05-16T09:53:53.416Z,20.70
2023-05-16T09:56:21.653Z,20.60
2023-05-16T09:58:53.229Z,20.50
2023-05-16T10:01:22.400Z,20.40
2023-05-16T10:03:51.946Z,20.30
2023-05-16T10:06:22.839Z,20.30
2023-05-16T10:08:52.353Z,20.30
2023-05-16T10:11:21.650Z,20.20
2023-05-16T10:13:53.815Z,20.20
2023-05-16T10:16:24.964Z,20.20
2023-05-16T10:18:54.690Z,20.30
2023-05-16T10:21:27.373Z,20.30
2023-05-16T10:24:00.368Z,20.30
2023-05-16T10:26:29.186Z,20.20
2023-05-16T10:28:57.915Z,20.30
2023-05-16T10:31:30.112Z,20.30
2023-05-16T10:33:58.789Z,20.30
2023-05-16T10:36:28.915Z,20.20
2023-05-16T10:38:58.295Z,20.20
2023-05-16T10:41:27.492Z,20.20
2023-05-16T10:44:01.182Z,20.30
2023-05-16T10:46:30.284Z,20.30
2023-05-16T10:48:58.950Z,20.40
2023-05-16T10:51:39.535Z,20.50
2023-05-16T10:54:12.758Z,20.50
2023-05-16T10:56:41.420Z,20.50
2023-05-16T10:59:26.498Z,20.70
2023-05-16T11:01:56.703Z,20.80
2023-05-16T11:04:25.324Z,20.90
2023-05-16T11:06:59.887Z,21.00
2023-05-16T11:09:28.782Z,21.40
2023-05-16T11:12:02.924Z,21.80
2023-05-16T11:14:39.182Z,21.90
2023-05-16T11:17:13.613Z,22.10
2023-05-16T11:19:45.853Z,22.20
2023-05-16T11:22:27.434Z,22.30
2023-05-16T11:25:00.336Z,22.40
2023-05-16T11:27:31.404Z,22.30
2023-05-16T11:30:14.349Z,22.30
2023-05-16T11:32:44.950Z,22.40
2023-05-16T11:35:15.367Z,22.60
2023-05-16T11:37:46.884Z,22.60
2023-05-16T11:40:17.363Z,22.70
2023-05-16T11:42:47.690Z,22.50
2023-05-16T11:45:18.181Z,22.20
2023-05-16T11:47:48.571Z,22.30
2023-05-16T11:50:19.177Z,22.20
2023-05-16T11:52:53.698Z,22.20
2023-05-16T11:55:40.567Z,22.00
2023-05-16T11:58:10.167Z,21.60
2023-05-16T12:00:38.499Z,21.50
2023-05-16T12:03:08.186Z,21.60
2023-05-16T12:05:36.634Z,21.80
2023-05-16T12:08:07.175Z,21.70
2023-05-16T12:10:35.770Z,21.80
2023-05-16T12:13:05.178Z,22.00
2023-05-16T12:15:34.357Z,22.00
2023-05-16T12:18:03.539Z,22.00
2023-05-16T12:20:31.986Z,21.90
2023-05-16T12:23:00.371Z,22.00
2023-05-16T12:25:32.939Z,22.10
2023-05-16T12:28:03.585Z,22.10
2023-05-16T12:30:33.574Z,22.00
2023-05-16T12:33:07.703Z,21.90
2023-05-16T12:35:40.158Z,21.90
2023-05-16T12:38:10.543Z,21.90
2023-05-16T12:40:42.489Z,22.00
2023-05-16T12:43:15.719Z,22.30
2023-05-16T12:45:50.309Z,22.50
2023-05-16T12:48:18.691Z,22.50
2023-05-16T12:50:47.315Z,22.60
2023-05-16T12:53:17.951Z,22.70
2023-05-16T12:55:47.954Z,23.20
2023-05-16T12:58:16.405Z,23.20
2023-05-16T13:00:44.744Z,23.00
2023-05-16T13:03:13.066Z,22.60
2023-05-16T13:05:41.564Z,22.20
2023-05-16T13:08:09.743Z,22.10
2023-05-16T13:10:37.948Z,22.50
2023-05-16T13:13:07.485Z,22.90
2023-05-16T13:15:35.918Z,22.80
2023-05-16T13:18:04.442Z,22.40
2023-05-16T13:20:32.749Z,22.10
2023-05-16T13:23:01.020Z,21.70
2023-05-16T13:25:29.628Z,21.40
2023-05-16T13:27:58.093Z,21.10
2023-05-16T13:30:29.014Z,20.90
2023-05-16T13:32:57.331Z,20.80
2023-05-16T13:35:26.609Z,20.60
2023-05-16T13:37:55.052Z,20.50
2023-05-16T13:40:23.517Z,20.40
2023-05-16T13:42:51.707Z,20.20
2023-05-16T13:45:20.209Z,20.10
2023-05-16T13:47:49.992Z,20.20
2023-05-16T13:50:18.493Z,20.30
2023-05-16T13:52:47.508Z,20.60
2023-05-16T13:55:16.118Z,21.00
2023-05-16T13:57:44.517Z,21.70
2023-05-16T14:02:45.233Z,22.40
2023-05-16T14:05:15.016Z,22.10
2023-05-16T14:07:45.361Z,21.80
2023-05-16T14:10:15.164Z,21.50
2023-05-16T14:12:43.667Z,21.10
2023-05-16T14:15:12.210Z,20.80
2023-05-16T14:17:40.634Z,20.40
2023-05-16T14:20:10.649Z,20.10
2023-05-16T14:22:40.305Z,19.90
2023-05-16T14:25:09.801Z,19.80
2023-05-16T14:27:38.324Z,19.50
2023-05-16T14:30:09.551Z,19.40
2023-05-16T14:32:37.902Z,19.10
2023-05-16T14:35:07.070Z,18.90
2023-05-16T14:37:35.293Z,18.70
2023-05-16T14:40:06.382Z,18.60
2023-05-16T14:42:34.581Z,18.40
2023-05-16T14:45:03.185Z,18.30
2023-05-16T14:47:31.750Z,18.30
2023-05-16T14:50:01.090Z,18.20
2023-05-16T14:52:29.328Z,18.10
2023-05-16T14:54:57.549Z,18.10
2023-05-16T14:57:27.149Z,18.00
2023-05-16T14:59:55.529Z,18.00
2023-05-16T15:02:23.835Z,18.00
2023-05-16T15:04:54.140Z,18.00
2023-05-16T15:07:22.490Z,18.10
2023-05-16T15:09:50.746Z,18.10
2023-05-16T15:12:18.973Z,18.20
2023-05-16T15:14:48.508Z,18.30
2023-05-16T15:17:24.064Z,18.40
2023-05-16T15:19:54.189Z,18.50
2023-05-16T15:22:22.382Z,18.40
2023-05-16T15:24:50.574Z,18.40
2023-05-16T15:27:18.734Z,18.40
2023-05-16T15:29:48.257Z,18.30
2023-05-16T15:32:18.313Z,18.20
2023-05-16T15:34:46.768Z,18.00
2023-05-16T15:37:15.083Z,17.90
2023-05-16T15:39:43.508Z,17.80
2023-05-16T15:42:12.547Z,17.70
2023-05-16T15:44:41.147Z,17.70
2023-05-16T15:47:10.772Z,17.60
2023-05-16T15:49:39.003Z,17.40
2023-05-16T15:52:07.412Z,17.20
2023-05-16T15:54:36.786Z,17.00
2023-05-16T15:57:05.480Z,16.90
2023-05-16T16:04:27.384Z,16.60
2023-05-16T16:06:56.144Z,16.50
2023-05-16T16:09:24.540Z,16.40
2023-05-16T16:11:56.214Z,16.40
2023-05-16T16:14:25.470Z,16.40
2023-05-16T16:16:53.722Z,16.30
2023-05-16T16:19:22.187Z,16.20
2023-05-16T16:21:52.072Z,16.10
2023-05-16T16:24:21.105Z,16.00
2023-05-16T16:26:49.308Z,15.90
2023-05-16T16:29:17.594Z,15.80
2023-05-16T16:31:45.826Z,15.80
2023-05-16T16:34:14.088Z,15.70
2023-05-16T16:36:42.328Z,15.60
2023-05-16T16:39:11.863Z,15.60
2023-05-16T16:41:40.294Z,15.60
2023-05-16T16:44:08.490Z,15.50
2023-05-16T16:46:36.729Z,15.40
2023-05-16T16:49:09.644Z,15.40
2023-05-16T16:51:37.851Z,15.30
2023-05-16T16:54:06.135Z,15.30
2023-05-16T16:56:36.099Z,15.20
2023-05-16T16:59:04.287Z,15.10
2023-05-16T17:01:32.858Z,15.00
2023-05-16T17:04:02.099Z,15.00
2023-05-16T17:06:30.785Z,14.90
2023-05-16T17:09:02.420Z,14.90
2023-05-16T17:11:30.949Z,14.90
2023-05-16T17:14:00.967Z,14.80
2023-05-16T17:16:29.650Z,14.80
2023-05-16T17:18:57.996Z,14.80
2023-05-16T17:21:26.703Z,14.70
2023-05-16T17:23:55.189Z,14.60
2023-05-16T17:26:23.337Z,14.70
2023-05-16T17:28:51.700Z,14.60
2023-05-16T17:31:21.603Z,14.60
2023-05-16T17:33:49.831Z,14.60
2023-05-16T17:36:18.146Z,14.50
2023-05-16T17:38:46.507Z,14.50
2023-05-16T17:41:15.007Z,14.50
2023-05-16T17:43:45.360Z,14.50
2023-05-16T17:46:14.415Z,14.40
2023-05-16T17:48:44.899Z,14.40
2023-05-16T17:51:13.242Z,14.40
2023-05-16T17:53:41.693Z,14.30
2023-05-16T17:56:10.082Z,14.30
2023-05-16T17:58:39.178Z,14.30
2023-05-16T18:01:09.254Z,14.30
2023-05-16T18:03:38.648Z,14.20
2023-05-16T18:06:09.295Z,14.20
2023-05-16T18:08:37.670Z,14.20
2023-05-16T18:11:06.170Z,14.20
2023-05-16T18:13:34.542Z,14.20
2023-05-16T18:16:03.788Z,14.20
2023-05-16T18:18:32.081Z,14.10
2023-05-16T18:21:00.446Z,14.10
2023-05-16T18:23:30.188Z,14.10
2023-05-16T18:25:58.563Z,14.00
2023-05-16T18:28:26.986Z,14.00
2023-05-16T18:30:56.476Z,13.90
2023-05-16T18:33:24.926Z,13.80
2023-05-16T18:35:53.165Z,13.70
2023-05-16T18:38:32.158Z,13.70
2023-05-16T18:41:03.343Z,13.60
2023-05-16T18:43:35.154Z,13.50
2023-05-16T18:46:03.985Z,13.50
2023-05-16T18:48:34.685Z,13.40
2023-05-16T18:51:04.911Z,13.30
2023-05-16T18:53:33.244Z,13.30
2023-05-16T18:56:02.989Z,13.30
2023-05-16T18:58:31.544Z,13.20
2023-05-16T19:00:59.824Z,13.20
2023-05-16T19:03:28.258Z,13.30
2023-05-16T19:05:56.778Z,13.20
2023-05-16T19:08:27.170Z,13.20
2023-05-16T19:10:59.646Z,13.10
2023-05-16T19:13:32.114Z,13.10
2023-05-16T19:16:00.400Z,12.90
2023-05-16T19:18:29.196Z,12.90
2023-05-16T19:20:57.704Z,12.80
2023-05-16T19:23:26.179Z,12.70
2023-05-16T19:25:54.620Z,12.60
2023-05-16T19:28:24.499Z,12.50
2023-05-16T19:30:54.206Z,12.40
2023-05-16T19:33:22.469Z,12.30
2023-05-16T19:35:51.602Z,12.20
2023-05-16T19:38:20.561Z,12.10
2023-05-16T19:40:48.975Z,12.00
2023-05-16T19:43:17.395Z,11.90
2023-05-16T19:45:45.809Z,11.80
2023-05-16T19:48:15.493Z,11.70
2023-05-16T19:50:43.888Z,11.60
2023-05-16T19:53:12.167Z,11.50
2023-05-16T19:55:40.662Z,11.40
2023-05-16T19:58:08.968Z,11.30
2023-05-16T20:00:37.282Z,11.20
2023-05-16T20:03:05.543Z,11.10
2023-05-16T20:05:35.232Z,11.10
2023-05-16T20:08:03.480Z,11.00
2023-05-16T20:10:31.702Z,10.90
2023-05-16T20:12:59.944Z,10.80
2023-05-16T20:15:28.510Z,10.80
2023-05-16T20:17:57.104Z,10.70
2023-05-16T20:20:25.373Z,10.70
2023-05-16T20:22:54.938Z,10.70
2023-05-16T20:25:23.322Z,10.70
2023-05-16T20:27:51.645Z,10.60
2023-05-16T20:30:19.950Z,10.70
2023-05-16T20:32:48.293Z,10.60
2023-05-16T20:35:16.768Z,10.60
2023-05-16T20:37:45.187Z,10.60
2023-05-16T20:40:15.114Z,10.60
2023-05-16T20:42:45.478Z,10.60
2023-05-16T20:45:13.882Z,10.50
2023-05-16T20:47:42.172Z,10.50
2023-05-16T20:50:11.612Z,10.40
2023-05-16T20:52:39.889Z,10.30
2023-05-16T20:55:09.109Z,10.30
2023-05-16T20:57:38.726Z,10.20
2023-05-16T21:00:08.921Z,10.20
2023-05-16T21:02:37.162Z,10.10
2023-05-16T21:05:23.220Z,10.10
2023-05-16T21:07:52.961Z,10.00
2023-05-16T21:10:21.415Z,9.90
2023-05-16T21:12:51.168Z,9.90
2023-05-16T21:15:21.603Z,9.80
2023-05-16T21:17:51.297Z,9.80
2023-05-16T21:20:19.682Z,9.70
2023-05-16T21:22:47.852Z,9.70
2023-05-16T21:25:16.033Z,9.60
2023-05-16T21:27:44.242Z,9.50
2023-05-16T21:30:15.431Z,9.50
2023-05-16T21:32:43.599Z,9.50
2023-05-16T21:35:11.853Z,9.40
2023-05-16T21:37:40.712Z,9.30
2023-05-16T21:40:10.349Z,9.30
2023-05-16T21:42:38.513Z,9.20
2023-05-16T21:45:12.435Z,9.20
2023-05-16T21:47:42.048Z,9.20
2023-05-16T21:50:11.426Z,9.10
2023-05-16T21:52:39.840Z,9.10
2023-05-16T21:55:09.762Z,9.10
2023-05-16T21:57:37.955Z,9.00
2023-05-16T22:00:09.715Z,9.00
2023-05-16T22:02:38.308Z,9.00
2023-05-16T22:05:09.507Z,8.90
2023-05-16T22:07:38.344Z,8.90
2023-05-16T22:10:08.326Z,8.90
2023-05-16T22:12:36.520Z,8.90
2023-05-16T22:15:05.718Z,8.90
2023-05-16T22:17:34.074Z,8.90
2023-05-16T22:20:02.490Z,8.80
2023-05-16T22:22:32.170Z,8.80
2023-05-16T22:25:00.627Z,8.80
2023-05-16T22:27:28.829Z,8.80
2023-05-16T22:29:57.061Z,8.80
2023-05-16T22:32:25.347Z,8.80
2023-05-16T22:34:53.995Z,8.80
2023-05-16T22:37:22.249Z,8.80
2023-05-16T22:39:53.148Z,8.80
2023-05-16T22:42:21.329Z,8.80
2023-05-16T22:44:50.092Z,8.70
2023-05-16T22:47:18.452Z,8.70
2023-05-16T22:49:46.651Z,8.70
2023-05-16T22:52:14.858Z,8.70
2023-05-16T22:54:43.042Z,8.70
2023-05-16T22:57:12.562Z,8.70
2023-05-16T22:59:40.775Z,8.70
2023-05-16T23:02:08.937Z,8.70
2023-05-16T23:04:37.209Z,8.60
2023-05-16T23:07:05.828Z,8.60
2023-05-16T23:09:34.162Z,8.60
2023-05-16T23:12:02.609Z,8.60
2023-05-16T23:14:32.194Z,8.60
2023-05-16T23:17:00.383Z,8.50
2023-05-16T23:19:28.700Z,8.50
2023-05-16T23:21:56.919Z,8.40
2023-05-16T23:24:25.209Z,8.40
2023-05-16T23:26:53.397Z,8.40
2023-05-16T23:29:21.667Z,8.40
2023-05-16T23:31:51.233Z,8.30
2023-05-16T23:34:19.413Z,8.30
2023-05-16T23:36:47.639Z,8.30
2023-05-16T23:39:15.908Z,8.20
2023-05-16T23:41:44.058Z,8.20
2023-05-16T23:44:12.200Z,8.10
2023-05-16T23:46:40.398Z,8.10
2023-05-16T23:49:09.870Z,8.00
2023-05-16T23:51:55.532Z,8.00
2023-05-16T23:54:25.450Z,7.90
2023-05-16T23:56:53.769Z,7.90
2023-05-16T23:59:22.186Z,7.80
